Peterborough, Canada
Current Conditions -  °F | °C
As of 9:00 PM on Wednesday 22 Oct 2014 (Local Time) from CYPQ Reporting Station
Clear Clear  
Wind Chill: 46°   Ceiling: Unl
Heat Index: 46°   Visibility: 9mi
Dew Point: 41°   Wind: 2mph
Humidity: 81%   Direction: 20°NNE
Pressure: 30.24"   Gusts: NA
Location:  44.3°N, 78.32°W
Report Text: CYPQ 230100Z AUTO 02002KT 9SM CLR 08/05 A3024 RMK SLP247
Loading
Personal Weather Stations






























Interactive Weather Map
Tropical Storm Tracking
New forecast layout! Learn more

10-Day Weather Forecast

Advertisements
Track Severe Weather on mobile